台北 の空港の天気 - METARとTAF

台湾桃園国際空港 ( RCTP / TPE ) - 台湾 台北市
飛行場実況気象(Metar)
観測時間10/22 19:30 CST (10/22 11:30 UTC)
風向・風速北北東 9m/s
視程10km以上
天気現象弱い雨
少しの雲 雲底高度 180m
全天の8割程度の雲 雲底高度 270m
全天の8割程度の雲 雲底高度 460m
気温19℃
湿度94%
気圧1014hPa
METARRCTP 221130Z 02017KT 9999 -RA FEW006 BKN009 BKN015 19/18 Q1014 NOSIG RMK A2996
過去の天気等 Google飛行場航空写真 Wunderground天気予報

過去48時間のMETAR

飛行場予報(TAF)
発表時間: 10/22 19:00 CST (10/22 11:00 UTC)
予報対象時間: 22日20時 CST ~ 24日2時 CST
風向・風速北北東 8m/s
視程10km以上
少しの雲 雲底高度 150m
全天の8割程度の雲 雲底高度 370m
22日20時 CST ~ 23日1時 CST に一時的に
視程5000m
天気現象
少しの雲 雲底高度 150m
全天の8割程度の雲 雲底高度 210m
23日1時 CST ~ 23日7時 CST に一時的に
風向・風速北東 11m/s
少しの雲 雲底高度 300m
全天の8割程度の雲 雲底高度 610m
23日7時 CST ~ 23日9時 CST に徐々に
風向・風速北東 10m/s
少しの雲 雲底高度 490m
全天の8割程度の雲 雲底高度 980m
23日11時 CST ~ 23日18時 CST に一時的に
風向・風速北東 14m/s
少しの雲 雲底高度 300m
全天の8割程度の雲 雲底高度 520m
TAF RCTP 221100Z 2212/2318 02015KT 9999 FEW005 BKN012
TEMPO 2212/2217 5000 RA FEW005 BKN007
TEMPO 2217/2223 04022KT FEW010 BKN020
BECMG 2223/2301 05020KT FEW016 BKN032
TEMPO 2303/2310 05027KT FEW010 BKN017